Thunder radar more information blitzortung!


Radar de pluja more information rain snow radar


Visita la nostra xarxa de llocs de meteo:

Template documentation
and downloads

And another site



No particular awareness of the weather is required.    There are no Weather-warnings

Pagina Historial Weather Underground text

Diari Resum Novembre 25, 2017 Unitats:  Imperial    Mètric   Tant
« Previous Dia
SegĂźent Dia »
Diari Setmana Mensual Anual Personalitzada
  Maxima: Minima: Media:
Temperatura: TemperatureC °F 5.3 °F 12.1 °F
Punt de rosada: DewpointC °F -3.9 °F 4.1 °F
Humitat: Humidity % 49 % 58 %
Wind Speed: WindSpeedKMH mph 0.0 mph 4.5 mph
RĂ fegues de vent: WindSpeedGustKMH mph - -
Vent:- - SW
Pression baro: PressurehPa in 1015.8 in -
Precipitacions: 0.0 in    
Historical Graphs
 
 
Dades de taula per Novembre 25, 2017
Temps Temperatura Punt de rosada Pression baro Vent Wind Speed RĂ fegues de vent Humitat Rainfall Rate (Hourly)
TemperatureC °F DewpointC °F PressurehPa in Calm     Humidity % HourlyPrecipMM in
00:00 9.6 °F 2.9 °F 1015.8 in Calm   3.2 mph 63 % 0.0 in
00:04 12.9 °F 3.0 °F 1018.8 in SW 1.9 mph   51 % 0.0 in
00:10 9.6 °F 2.9 °F 1015.8 in NNW 3.2 mph 4.8 mph 63 % 0.0 in
00:20 9.0 °F 2.6 °F 1015.8 in North 1.6 mph 3.2 mph 64 % 0.0 in
00:30 9.4 °F 2.7 °F 1015.8 in NNE 3.2 mph 4.8 mph 63 % 0.0 in
00:40 9.6 °F 2.9 °F 1015.8 in SW 1.6 mph 3.2 mph 63 % 0.0 in
00:50 10.1 °F 3.4 °F 1015.8 in SW 3.2 mph 4.8 mph 63 % 0.0 in
01:00 10.7 °F 3.9 °F 1015.8 in WSW 4.8 mph 4.8 mph 63 % 0.0 in
01:10 10.9 °F 4.1 °F 1016.8 in WSW 3.2 mph 3.2 mph 63 % 0.0 in
01:20 10.5 °F 3.7 °F 1015.8 in Calm   1.6 mph 63 % 0.0 in
01:30 10.2 °F 3.4 °F 1015.8 in SW 1.6 mph 3.2 mph 63 % 0.0 in
01:40 10.1 °F 3.4 °F 1015.8 in WSW 1.6 mph 3.2 mph 63 % 0.0 in
01:50 10.2 °F 3.4 °F 1015.8 in WSW 1.6 mph 3.2 mph 63 % 0.0 in
02:00 10.7 °F 3.9 °F 1015.8 in WSW 3.2 mph 4.8 mph 63 % 0.0 in
02:10 11.0 °F 4.0 °F 1016.8 in SW 3.2 mph 3.2 mph 62 % 0.0 in
08:11 11.1 °F 4.1 °F 1016.8 in WSW 3.7 mph 3.7 mph 62 % 0.0 in
08:12 11.1 °F 4.1 °F 1016.8 in West 3.9 mph 3.9 mph 62 % 0.0 in
08:13 11.1 °F 4.1 °F 1016.8 in West 3.7 mph 3.7 mph 62 % 0.0 in
08:18 11.5 °F 4.4 °F 1016.8 in West 3.7 mph 3.7 mph 62 % 0.0 in
08:23 11.8 °F 4.5 °F 1016.8 in WNW 1.9 mph 1.9 mph 61 % 0.0 in
08:28 11.8 °F 4.5 °F 1016.8 in SW 3.5 mph   61 % 0.0 in
08:33 11.2 °F 3.9 °F 1016.8 in West 3.7 mph 3.7 mph 61 % 0.0 in
08:38 11.1 °F 3.8 °F 1016.8 in West 4.2 mph 4.2 mph 61 % 0.0 in
08:43 11.6 °F 4.3 °F 1016.8 in WSW 5.6 mph 5.6 mph 61 % 0.0 in
08:53 12.7 °F 5.1 °F 1016.8 in West 3.9 mph 3.9 mph 60 % 0.0 in
08:58 12.6 °F 5.1 °F 1016.8 in SW 3.9 mph 3.9 mph 60 % 0.0 in
09:03 12.0 °F 4.4 °F 1017.8 in SW 3.7 mph 3.7 mph 60 % 0.0 in
09:08 11.5 °F 4.0 °F 1017.8 in WSW 3.9 mph 3.9 mph 60 % 0.0 in
09:13 11.5 °F 4.0 °F 1017.8 in WSW 4.2 mph 4.2 mph 60 % 0.0 in
09:18 11.6 °F 4.3 °F 1017.8 in Calm     61 % 0.0 in
09:23 11.9 °F 4.6 °F 1017.8 in WNW 3.9 mph 3.9 mph 61 % 0.0 in
09:28 12.1 °F 4.8 °F 1017.8 in SW 4.2 mph 4.2 mph 61 % 0.0 in
09:33 11.5 °F 4.2 °F 1017.8 in ENE 3.7 mph 3.7 mph 61 % 0.0 in
09:38 10.9 °F 3.7 °F 1017.8 in ENE 1.9 mph 1.9 mph 61 % 0.0 in
09:43 10.9 °F 3.9 °F 1017.8 in ENE 1.9 mph   62 % 0.0 in
09:48 10.6 °F 3.6 °F 1017.8 in ENE 4.2 mph 4.2 mph 62 % 0.0 in
09:53 10.3 °F 3.6 °F 1017.8 in ENE 5.6 mph 5.6 mph 63 % 0.0 in
09:58 10.1 °F 3.4 °F 1017.8 in ENE 1.9 mph 1.9 mph 63 % 0.0 in
10:03 10.0 °F 3.3 °F 1017.8 in SW 3.7 mph 3.7 mph 63 % 0.0 in
10:08 9.7 °F 3.0 °F 1017.8 in WSW 5.6 mph 5.6 mph 63 % 0.0 in
10:13 9.6 °F 2.9 °F 1017.8 in WSW 5.8 mph 5.8 mph 63 % 0.0 in
10:18 9.8 °F 3.3 °F 1016.8 in SW 5.6 mph 5.6 mph 64 % 0.0 in
10:23 10.0 °F 3.7 °F 1016.8 in WSW 3.9 mph   65 % 0.0 in
10:28 10.4 °F 4.1 °F 1016.8 in West 3.7 mph 3.7 mph 65 % 0.0 in
10:33 11.3 °F 4.7 °F 1017.8 in WNW 1.9 mph 2.3 mph 64 % 0.0 in
10:38 12.0 °F 5.4 °F 1017.8 in West 3.7 mph 3.7 mph 64 % 0.0 in
10:43 12.3 °F 5.4 °F 1017.8 in WNW 1.9 mph   63 % 0.0 in
10:48 12.1 °F 5.5 °F 1017.8 in Calm     64 % 0.0 in
10:53 11.9 °F 5.3 °F 1017.8 in West 2.3 mph   64 % 0.0 in
10:58 12.1 °F 5.5 °F 1017.8 in WNW 1.9 mph   64 % 0.0 in
11:03 12.4 °F 5.6 °F 1017.8 in SW 3.7 mph 3.7 mph 63 % 0.0 in
11:08 12.3 °F 5.7 °F 1017.8 in SW 5.6 mph 5.6 mph 64 % 0.0 in
11:13 12.2 °F 5.3 °F 1017.8 in WSW 5.6 mph 5.6 mph 63 % 0.0 in
11:18 12.2 °F 5.3 °F 1018.8 in SW 3.9 mph 3.9 mph 63 % 0.0 in
11:23 12.6 °F 5.5 °F 1018.8 in South 5.6 mph 5.6 mph 62 % 0.0 in
11:29 12.8 °F 5.7 °F 1018.8 in South 9.3 mph 9.3 mph 62 % 0.0 in
11:34 12.9 °F 5.8 °F 1017.8 in SW 6.4 mph 6.4 mph 62 % 0.0 in
11:39 13.1 °F 6.0 °F 1017.8 in West 7.4 mph 7.4 mph 62 % 0.0 in
11:44 13.3 °F 5.9 °F 1017.8 in WNW 1.9 mph 1.9 mph 61 % 0.0 in
11:49 13.4 °F 6.0 °F 1017.8 in SW 3.7 mph 3.7 mph 61 % 0.0 in
11:54 13.6 °F 6.2 °F 1017.8 in WNW 3.5 mph 3.5 mph 61 % 0.0 in
11:59 13.9 °F 6.3 °F 1017.8 in WSW 5.3 mph 5.3 mph 60 % 0.0 in
12:04 13.9 °F 6.3 °F 1017.8 in West 5.6 mph 5.6 mph 60 % 0.0 in
12:09 13.9 °F 6.3 °F 1017.8 in NNW 3.7 mph 3.7 mph 60 % 0.0 in
12:14 14.0 °F 6.3 °F 1017.8 in ESE 5.6 mph 5.6 mph 60 % 0.0 in
12:19 14.1 °F 6.4 °F 1018.8 in WSW 7.4 mph 7.4 mph 60 % 0.0 in
12:24 14.1 °F 6.4 °F 1018.8 in SW 5.6 mph 5.6 mph 60 % 0.0 in
12:29 14.1 °F 6.4 °F 1018.8 in East 4.2 mph 4.2 mph 60 % 0.0 in
12:30 14.1 °F 6.4 °F 1018.8 in East 5.6 mph 5.6 mph 60 % 0.0 in
12:35 14.2 °F 6.6 °F 1018.8 in ESE 4.2 mph 4.2 mph 60 % 0.0 in
12:40 14.2 °F 6.6 °F 1018.8 in West 9.0 mph 9.0 mph 60 % 0.0 in
12:45 14.2 °F 6.6 °F 1018.8 in WNW 5.6 mph 5.6 mph 60 % 0.0 in
12:50 14.3 °F 6.6 °F 1018.8 in WSW 3.7 mph 3.7 mph 60 % 0.0 in
12:52 14.3 °F 6.6 °F 1018.8 in WSW 5.6 mph 5.8 mph 60 % 0.0 in
12:57 14.2 °F 6.8 °F 1018.8 in West 7.4 mph 7.4 mph 61 % 0.0 in
13:02 14.2 °F 6.8 °F 1018.8 in SSW 5.6 mph 5.6 mph 61 % 0.0 in
13:07 14.2 °F 6.8 °F 1018.8 in West 5.6 mph 5.6 mph 61 % 0.0 in
13:12 14.4 °F 6.9 °F 1018.8 in SW 4.7 mph 4.7 mph 61 % 0.0 in
13:22 15.0 °F 7.6 °F 1018.8 in WSW 6.1 mph 6.1 mph 61 % 0.0 in
13:27 15.4 °F 7.9 °F 1018.8 in WNW 7.6 mph 7.6 mph 61 % 0.0 in
13:32 15.6 °F 7.8 °F 1018.8 in West 6.9 mph 6.9 mph 60 % 0.0 in
13:37 15.8 °F 8.1 °F 1018.8 in WNW 5.6 mph 5.6 mph 60 % 0.0 in
13:42 15.7 °F 7.9 °F 1018.8 in WSW 7.4 mph 7.4 mph 60 % 0.0 in
13:47 15.6 °F 7.6 °F 1017.8 in WNW 7.4 mph 7.4 mph 59 % 0.0 in
13:52 15.5 °F 7.5 °F 1017.8 in West 9.3 mph 9.3 mph 59 % 0.0 in
13:57 15.5 °F 7.5 °F 1017.8 in SW 3.7 mph 3.9 mph 59 % 0.0 in
14:02 15.6 °F 7.6 °F 1017.8 in SW 4.7 mph 4.7 mph 59 % 0.0 in
14:07 15.6 °F 7.6 °F 1017.8 in West 5.6 mph 5.6 mph 59 % 0.0 in
14:12 15.6 °F 7.6 °F 1017.8 in West 4.2 mph 4.2 mph 59 % 0.0 in
14:17 15.5 °F 7.5 °F 1017.8 in WSW 2.3 mph 2.3 mph 59 % 0.0 in
14:22 15.6 °F 7.6 °F 1017.8 in SW 3.7 mph 3.7 mph 59 % 0.0 in
14:27 15.7 °F 7.7 °F 1017.8 in SW 3.9 mph 3.9 mph 59 % 0.0 in
14:28 15.7 °F 7.7 °F 1017.8 in SW 5.0 mph 5.0 mph 59 % 0.0 in
14:33 15.7 °F 7.7 °F 1017.8 in NW 3.7 mph 3.7 mph 59 % 0.0 in
14:38 15.6 °F 7.6 °F 1017.8 in NW 2.3 mph   59 % 0.0 in
14:43 15.6 °F 7.6 °F 1017.8 in North 3.7 mph 3.7 mph 59 % 0.0 in
14:48 15.7 °F 7.7 °F 1017.8 in ENE 3.7 mph 3.7 mph 59 % 0.0 in
14:53 15.7 °F 7.7 °F 1017.8 in ESE 5.8 mph 5.8 mph 59 % 0.0 in
14:58 15.7 °F 7.4 °F 1017.8 in NE 1.9 mph   58 % 0.0 in
15:03 15.7 °F 7.4 °F 1018.8 in SE 3.7 mph 3.7 mph 58 % 0.0 in
15:08 15.6 °F 7.3 °F 1018.8 in East 3.7 mph 3.9 mph 58 % 0.0 in
15:13 15.6 °F 7.3 °F 1018.8 in East 3.7 mph 3.7 mph 58 % 0.0 in
15:18 15.5 °F 7.3 °F 1018.8 in ESE 4.2 mph 4.2 mph 58 % 0.0 in
15:23 15.4 °F 7.2 °F 1018.8 in ESE 1.9 mph 1.9 mph 58 % 0.0 in
15:28 15.6 °F 7.3 °F 1018.8 in Calm     58 % 0.0 in
15:33 15.7 °F 7.4 °F 1018.8 in Calm     58 % 0.0 in
15:38 15.9 °F 7.7 °F 1018.8 in Calm     58 % 0.0 in
15:43 15.9 °F 7.7 °F 1018.8 in SSE 3.7 mph 3.7 mph 58 % 0.0 in
15:46 16.1 °F 7.8 °F 1018.8 in SSE 1.9 mph   58 % 0.0 in
15:51 16.3 °F 8.0 °F 1018.8 in ESE 3.7 mph 3.7 mph 58 % 0.0 in
15:56 16.0 °F 7.5 °F 1018.8 in ENE 5.6 mph 5.6 mph 57 % 0.0 in
16:01 16.0 °F 7.5 °F 1018.8 in ENE 5.6 mph 5.6 mph 57 % 0.0 in
16:06 16.0 °F 7.7 °F 1018.8 in ESE 3.7 mph 3.7 mph 58 % 0.0 in
16:11 16.0 °F 7.5 °F 1018.8 in ESE 5.6 mph 5.6 mph 57 % 0.0 in
16:16 15.9 °F 7.7 °F 1019.9 in East 3.7 mph 3.7 mph 58 % 0.0 in
16:21 15.8 °F 7.6 °F 1019.9 in East 4.2 mph 4.2 mph 58 % 0.0 in
16:26 15.7 °F 7.4 °F 1019.9 in SE 3.7 mph 3.7 mph 58 % 0.0 in
16:31 15.7 °F 7.4 °F 1019.9 in ESE 7.4 mph 7.4 mph 58 % 0.0 in
16:36 15.6 °F 7.1 °F 1019.9 in ESE 5.6 mph 5.6 mph 57 % 0.0 in
16:41 15.6 °F 7.1 °F 1019.9 in SE 3.7 mph 3.9 mph 57 % 0.0 in
16:46 15.4 °F 6.9 °F 1019.9 in ESE 6.1 mph 6.1 mph 57 % 0.0 in
16:51 15.2 °F 6.7 °F 1019.9 in East 9.3 mph 9.3 mph 57 % 0.0 in
16:56 15.0 °F 6.8 °F 1019.9 in ENE 5.8 mph 5.8 mph 58 % 0.0 in
17:01 14.9 °F 6.7 °F 1019.9 in ENE 7.4 mph 7.4 mph 58 % 0.0 in
17:06 14.7 °F 6.8 °F 1019.9 in NNE 7.4 mph 7.4 mph 59 % 0.0 in
17:11 14.5 °F 6.8 °F 1019.9 in ESE 7.4 mph 7.4 mph 60 % 0.0 in
17:16 14.4 °F 6.9 °F 1019.9 in NNE 7.4 mph 7.4 mph 61 % 0.0 in
17:21 14.3 °F 6.9 °F 1019.9 in NW 3.2 mph 3.2 mph 61 % 0.0 in
17:26 14.2 °F 6.8 °F 1019.9 in NNW 7.4 mph 7.4 mph 61 % 0.0 in
17:31 14.3 °F 7.1 °F 1019.9 in East 7.4 mph 7.4 mph 62 % 0.0 in
17:36 14.5 °F 7.3 °F 1019.9 in ENE 9.3 mph 9.3 mph 62 % 0.0 in
17:41 14.4 °F 7.2 °F 1019.9 in NE 3.7 mph   62 % 0.0 in
17:46 14.2 °F 7.3 °F 1019.9 in East 5.6 mph 5.6 mph 63 % 0.0 in
17:51 14.2 °F 7.0 °F 1019.9 in WNW 3.7 mph 3.7 mph 62 % 0.0 in
17:56 14.0 °F 7.1 °F 1019.9 in North 1.9 mph 1.9 mph 63 % 0.0 in
18:01 14.0 °F 7.1 °F 1019.9 in NW 3.7 mph 3.7 mph 63 % 0.0 in
18:06 13.8 °F 6.9 °F 1019.9 in NNE 1.9 mph 1.9 mph 63 % 0.0 in
18:11 13.6 °F 6.9 °F 1019.9 in ENE 1.9 mph 1.9 mph 64 % 0.0 in
18:16 13.4 °F 6.7 °F 1020.9 in SW 3.7 mph 3.7 mph 64 % 0.0 in
18:21 13.1 °F 6.4 °F 1020.9 in WSW 3.7 mph 4.2 mph 64 % 0.0 in
18:25 8.0 °F -1.8 °F 1022.9 in SW 1.6 mph 3.2 mph 50 % 0.0 in
18:26 13.0 °F 6.3 °F 1020.9 in West 2.3 mph 2.3 mph 64 % 0.0 in
18:31 13.0 °F 6.6 °F 1021.9 in West 1.9 mph 1.9 mph 65 % 0.0 in
18:33 13.0 °F 6.6 °F 1021.9 in West 2.6 mph 2.6 mph 65 % 0.0 in
18:35 7.7 °F -2.1 °F 1023.9 in Calm     50 % 0.0 in
18:43 13.0 °F 6.6 °F 1021.9 in West 3.7 mph 3.7 mph 65 % 0.0 in
18:45 7.6 °F -2.2 °F 1023.9 in Calm   3.2 mph 50 % 0.0 in
18:48 12.9 °F 6.5 °F 1021.9 in WNW 3.9 mph 3.9 mph 65 % 0.0 in
18:53 13.0 °F 6.6 °F 1021.9 in WNW 3.7 mph 3.7 mph 65 % 0.0 in
18:55 7.7 °F -2.1 °F 1024.9 in Calm   4.8 mph 50 % 0.0 in
18:58 13.1 °F 6.7 °F 1021.9 in West 4.2 mph 4.2 mph 65 % 0.0 in
19:03 13.1 °F 6.9 °F 1021.9 in WSW 1.9 mph 1.9 mph 66 % 0.0 in
19:05 7.6 °F -2.2 °F 1023.9 in WSW 1.6 mph 3.2 mph 50 % 0.0 in
19:08 13.0 °F 6.8 °F 1021.9 in West 1.9 mph   66 % 0.0 in
19:13 13.0 °F 6.8 °F 1021.9 in SW 1.9 mph   66 % 0.0 in
19:15 7.4 °F -2.3 °F 1023.9 in WSW 1.6 mph 3.2 mph 50 % 0.0 in
19:18 13.0 °F 6.8 °F 1021.9 in South 2.6 mph   66 % 0.0 in
19:23 12.9 °F 6.5 °F 1021.9 in SW 3.7 mph 3.7 mph 65 % 0.0 in
19:25 7.3 °F -2.4 °F 1024.9 in WSW 1.6 mph 3.2 mph 50 % 0.0 in
19:28 12.9 °F 6.5 °F 1021.9 in SW 3.7 mph 3.7 mph 65 % 0.0 in
19:33 12.9 °F 6.5 °F 1021.9 in WSW 6.9 mph 6.9 mph 65 % 0.0 in
19:35 7.3 °F -2.4 °F 1023.9 in WSW 3.2 mph 3.2 mph 50 % 0.0 in
19:38 13.0 °F 6.6 °F 1021.9 in WSW 5.6 mph 5.6 mph 65 % 0.0 in
19:43 13.0 °F 6.6 °F 1021.9 in SSW 3.9 mph 3.9 mph 65 % 0.0 in
19:45 7.3 °F -2.4 °F 1023.9 in Calm   3.2 mph 50 % 0.0 in
19:48 13.1 °F 6.7 °F 1021.9 in SW 5.6 mph 5.6 mph 65 % 0.0 in
19:53 13.1 °F 6.7 °F 1021.9 in West 7.4 mph 7.4 mph 65 % 0.0 in
19:55 7.2 °F -2.6 °F 1023.9 in Calm   3.2 mph 50 % 0.0 in
19:58 13.0 °F 6.3 °F 1021.9 in West 3.7 mph 3.7 mph 64 % 0.0 in
20:03 13.0 °F 6.3 °F 1021.9 in West 3.7 mph 3.7 mph 64 % 0.0 in
20:05 7.1 °F -2.6 °F 1024.9 in WSW 1.6 mph 1.6 mph 50 % 0.0 in
20:08 12.9 °F 5.8 °F 1021.9 in SW 1.9 mph   62 % 0.0 in
20:13 12.8 °F 5.4 °F 1021.9 in West 7.4 mph 7.4 mph 61 % 0.0 in
20:15 7.1 °F -2.6 °F 1024.9 in Calm   1.6 mph 50 % 0.0 in
20:18 12.8 °F 5.2 °F 1022.9 in West 8.7 mph 8.7 mph 60 % 0.0 in
20:23 12.8 °F 4.5 °F 1022.9 in WSW 9.3 mph 9.3 mph 57 % 0.0 in
20:25 7.1 °F -2.6 °F 1024.9 in Calm   3.2 mph 50 % 0.0 in
20:28 12.8 °F 4.0 °F 1022.9 in West 11.1 mph 11.1 mph 55 % 0.0 in
20:33 12.6 °F 3.8 °F 1022.9 in WSW 7.4 mph 7.4 mph 55 % 0.0 in
20:35 7.0 °F -2.7 °F 1026.0 in West 1.6 mph 3.2 mph 50 % 0.0 in
20:38 12.3 °F 3.2 °F 1022.9 in SW 5.6 mph 5.6 mph 54 % 0.0 in
20:43 12.4 °F 3.3 °F 1022.9 in West 11.9 mph 11.9 mph 54 % 0.0 in
20:45 6.9 °F -2.8 °F 1026.0 in Calm   3.2 mph 50 % 0.0 in
20:48 12.5 °F 3.2 °F 1021.9 in NW 9.3 mph 9.3 mph 53 % 0.0 in
20:53 12.4 °F 2.8 °F 1021.9 in WSW 11.1 mph 11.1 mph 52 % 0.0 in
20:55 7.0 °F -2.7 °F 1024.9 in Calm   3.2 mph 50 % 0.0 in
20:58 12.3 °F 2.7 °F 1021.9 in West 5.6 mph 6.4 mph 52 % 0.0 in
21:03 12.2 °F 2.6 °F 1022.9 in West 9.3 mph 9.3 mph 52 % 0.0 in
21:05 7.0 °F -2.7 °F 1026.0 in Calm   3.2 mph 50 % 0.0 in
21:08 12.2 °F 2.6 °F 1022.9 in West 9.3 mph 9.3 mph 52 % 0.0 in
21:15 7.0 °F -2.7 °F 1026.0 in West 1.6 mph 4.8 mph 50 % 0.0 in
21:18 12.0 °F 2.2 °F 1022.9 in NNW 9.3 mph 9.3 mph 51 % 0.0 in
21:23 11.9 °F 2.1 °F 1022.9 in SW 9.3 mph 9.3 mph 51 % 0.0 in
21:25 7.0 °F -2.7 °F 1026.0 in Calm   3.2 mph 50 % 0.0 in
21:29 11.7 °F 1.9 °F 1022.9 in West 9.3 mph 9.3 mph 51 % 0.0 in
21:30 11.7 °F 1.9 °F 1022.9 in WSW 22.2 mph 22.2 mph 51 % 0.0 in
21:35 11.7 °F 1.6 °F 1022.9 in WNW 7.4 mph 7.4 mph 50 % 0.0 in
21:40 11.5 °F 1.7 °F 1022.9 in West 7.6 mph 7.6 mph 51 % 0.0 in
21:45 11.4 °F 1.3 °F 1022.9 in West 5.6 mph 5.8 mph 50 % 0.0 in
21:50 11.3 °F 1.2 °F 1022.9 in SSW 14.8 mph 14.8 mph 50 % 0.0 in
21:55 11.2 °F 1.2 °F 1022.9 in WSW 13.0 mph 13.0 mph 50 % 0.0 in
22:00 11.1 °F 1.1 °F 1022.9 in West 7.4 mph 7.4 mph 50 % 0.0 in
22:05 11.1 °F 1.1 °F 1023.9 in West 11.1 mph 11.1 mph 50 % 0.0 in
22:10 11.0 °F 0.9 °F 1023.9 in WSW 11.1 mph 11.1 mph 50 % 0.0 in
22:15 10.8 °F 0.5 °F 1023.9 in West 9.3 mph 9.3 mph 49 % 0.0 in
22:20 10.6 °F 0.3 °F 1023.9 in SW 6.1 mph 6.1 mph 49 % 0.0 in
22:25 10.5 °F 0.2 °F 1023.9 in SW 7.4 mph 7.4 mph 49 % 0.0 in
22:30 10.3 °F 0.1 °F 1023.9 in West 7.4 mph 7.4 mph 49 % 0.0 in
22:35 10.3 °F 0.1 °F 1023.9 in West 7.4 mph 7.4 mph 49 % 0.0 in
22:40 10.2 °F -0.1 °F 1023.9 in SW 9.7 mph 9.7 mph 49 % 0.0 in
22:45 10.1 °F -0.2 °F 1023.9 in SW 5.6 mph 5.6 mph 49 % 0.0 in
22:50 9.9 °F -0.3 °F 1023.9 in SW 5.6 mph 5.6 mph 49 % 0.0 in
22:55 9.8 °F -0.4 °F 1023.9 in WSW 5.6 mph 5.6 mph 49 % 0.0 in
22:56 9.8 °F -0.4 °F 1023.9 in WSW 5.6 mph 5.6 mph 49 % 0.0 in
23:01 9.6 °F -0.6 °F 1022.9 in WSW 5.6 mph 5.6 mph 49 % 0.0 in
23:05 5.5 °F -3.8 °F 1026.0 in NW 1.6 mph 1.6 mph 51 % 0.0 in
23:06 9.4 °F -0.8 °F 1022.9 in SW 1.9 mph   49 % 0.0 in
23:11 9.3 °F -0.9 °F 1022.9 in SW 3.7 mph   49 % 0.0 in
23:15 5.4 °F -3.9 °F 1026.0 in NNW 1.6 mph 3.2 mph 51 % 0.0 in
23:16 9.2 °F -1.0 °F 1023.9 in WNW 2.6 mph 2.6 mph 49 % 0.0 in
23:21 9.1 °F -1.1 °F 1023.9 in SSW 3.7 mph 3.7 mph 49 % 0.0 in
23:25 5.6 °F -3.8 °F 1026.0 in North 1.6 mph 6.4 mph 51 % 0.0 in
23:26 9.0 °F -1.2 °F 1023.9 in West 3.7 mph 3.7 mph 49 % 0.0 in
23:31 8.9 °F -1.3 °F 1023.9 in West 3.9 mph 3.9 mph 49 % 0.0 in
23:35 5.5 °F -3.6 °F 1026.0 in NNE 1.6 mph 4.8 mph 52 % 0.0 in
23:36 8.7 °F -1.4 °F 1023.9 in WSW 3.7 mph 3.7 mph 49 % 0.0 in
23:41 8.6 °F -1.5 °F 1023.9 in WSW 3.9 mph 3.9 mph 49 % 0.0 in
23:45 5.4 °F -3.7 °F 1026.0 in NNE 1.6 mph 3.2 mph 52 % 0.0 in
23:46 8.6 °F -1.3 °F 1023.9 in WSW 5.6 mph 5.6 mph 50 % 0.0 in
23:51 8.6 °F -1.3 °F 1023.9 in West 1.9 mph   50 % 0.0 in
23:55 5.3 °F -3.8 °F 1026.0 in North 1.6 mph 8.0 mph 52 % 0.0 in
23:56 8.4 °F -1.4 °F 1023.9 in SW 3.7 mph 3.7 mph 50 % 0.0 in
Meteo Sesrovires
Elogis d' Weather Underground - 3.75 mb

Guio original per  Jim McMurry - jmcmurry@mwt.net Adaptat per a la plantilla per  Wim van der Kuil - Leuven-Template.eu

Trobareu la nostra informacio del temps tambe a:

Weather Underground

AWEKAS